Mc Clellanville, South Carolina
Current Conditions -  °F | °C
As of 3:35 AM on Monday 24 Nov 2014 (Local Time) from KLRO Reporting Station
Broken Clouds Broken Clouds  
Wind Chill: 66°   Ceiling: 1700
Heat Index: 66°   Visibility: 5mi
Dew Point: 66°   Wind: 9mph
Humidity: 100%   Direction: 200°SSW
Pressure: 29.84"   Gusts: NA
Location:  33.1132°N, 79.5134°W
Report Text: KLRO 240835Z AUTO 20008KT 5SM FEW006 BKN017 19/19 A2984 RMK AO2 PWINO PNO
Loading
Personal Weather Stations






























Interactive Weather Map New forecast layout! Learn more

10-Day Weather Forecast

Advertisements
Track Severe Weather on mobile